createdAt,value
2022-09-04T00:02:25.130Z,14.66
2022-09-04T00:05:02.447Z,14.65
2022-09-04T00:07:39.601Z,14.66
2022-09-04T00:10:19.660Z,14.58
2022-09-04T00:12:52.750Z,14.38
2022-09-04T00:15:24.439Z,14.50
2022-09-04T00:17:58.147Z,14.45
2022-09-04T00:20:35.341Z,14.47
2022-09-04T00:23:11.507Z,14.34
2022-09-04T00:25:50.531Z,14.24
2022-09-04T00:28:26.108Z,14.30
2022-09-04T00:31:01.262Z,14.28
2022-09-04T00:33:38.248Z,14.22
2022-09-04T00:36:07.568Z,14.22
2022-09-04T00:38:43.095Z,14.15
2022-09-04T00:41:28.446Z,14.01
2022-09-04T00:44:43.343Z,14.11
2022-09-04T00:47:41.162Z,14.06
2022-09-04T00:50:38.344Z,14.01
2022-09-04T00:53:27.455Z,13.92
2022-09-04T00:56:15.491Z,13.86
2022-09-04T00:58:58.154Z,13.94
2022-09-04T01:01:28.552Z,13.84
2022-09-04T01:04:24.689Z,13.84
2022-09-04T01:07:05.856Z,13.82
2022-09-04T01:09:49.120Z,13.82
2022-09-04T01:12:31.075Z,13.75
2022-09-04T01:15:14.399Z,13.82
2022-09-04T01:17:52.405Z,13.79
2022-09-04T01:20:28.559Z,13.76
2022-09-04T01:23:11.369Z,13.64
2022-09-04T01:26:07.858Z,13.50
2022-09-04T01:28:43.591Z,13.61
2022-09-04T01:31:20.799Z,13.62
2022-09-04T01:33:59.768Z,13.71
2022-09-04T01:36:37.219Z,13.65
2022-09-04T01:39:05.690Z,13.73
2022-09-04T01:41:40.346Z,13.67
2022-09-04T01:44:10.806Z,13.60
2022-09-04T01:46:48.162Z,13.51
2022-09-04T01:49:25.777Z,13.62
2022-09-04T01:52:04.182Z,13.66
2022-09-04T01:54:51.838Z,13.53
2022-09-04T01:57:33.172Z,13.51
2022-09-04T02:00:09.367Z,13.49
2022-09-04T02:02:55.739Z,13.49
2022-09-04T02:05:31.129Z,13.49
2022-09-04T02:08:11.499Z,13.39
2022-09-04T02:10:47.236Z,13.38
2022-09-04T02:13:23.262Z,13.23
2022-09-04T02:16:06.157Z,13.22
2022-09-04T02:18:45.540Z,13.23
2022-09-04T02:21:22.047Z,13.21
2022-09-04T02:23:58.185Z,13.17
2022-09-04T02:26:31.829Z,13.08
2022-09-04T02:29:10.111Z,13.08
2022-09-04T02:31:49.411Z,13.05
2022-09-04T02:34:25.574Z,13.05
2022-09-04T02:36:59.430Z,12.99
2022-09-04T02:39:39.537Z,12.99
2022-09-04T02:42:18.266Z,12.97
2022-09-04T02:44:59.192Z,12.85
2022-09-04T02:47:34.806Z,12.88
2022-09-04T02:50:12.820Z,12.90
2022-09-04T02:52:59.596Z,12.88
2022-09-04T02:55:46.644Z,12.83
2022-09-04T02:58:25.936Z,12.77
2022-09-04T03:01:05.903Z,12.71
2022-09-04T03:03:43.067Z,12.77
2022-09-04T03:06:13.561Z,12.76
2022-09-04T03:08:48.283Z,12.71
2022-09-04T03:11:24.473Z,12.67
2022-09-04T03:14:01.630Z,12.67
2022-09-04T03:16:38.291Z,12.70
2022-09-04T03:19:16.555Z,12.70
2022-09-04T03:21:51.547Z,12.64
2022-09-04T03:24:27.407Z,12.61
2022-09-04T03:26:57.837Z,12.56
2022-09-04T03:29:37.043Z,12.60
2022-09-04T03:32:16.677Z,12.62
2022-09-04T03:34:53.414Z,12.63
2022-09-04T03:37:38.391Z,12.51
2022-09-04T03:40:29.770Z,12.54
2022-09-04T03:43:26.167Z,12.52
2022-09-04T03:46:03.590Z,12.49
2022-09-04T03:48:48.792Z,12.45
2022-09-04T03:51:25.771Z,12.52
2022-09-04T03:54:04.688Z,12.54
2022-09-04T03:57:06.551Z,12.50
2022-09-04T03:59:53.364Z,12.48
2022-09-04T04:02:30.851Z,12.36
2022-09-04T04:05:21.484Z,12.48
2022-09-04T04:08:02.665Z,12.46
2022-09-04T04:10:35.465Z,12.42
2022-09-04T04:13:37.961Z,12.40
2022-09-04T04:16:24.606Z,12.33
2022-09-04T04:19:10.905Z,12.26
2022-09-04T04:21:56.033Z,12.39
2022-09-04T04:24:39.195Z,12.22
2022-09-04T04:27:25.653Z,12.37
2022-09-04T04:30:06.392Z,12.36
2022-09-04T04:32:48.615Z,12.36
2022-09-04T04:35:28.823Z,12.32
2022-09-04T04:38:09.536Z,12.25
2022-09-04T04:40:56.398Z,12.30
2022-09-04T04:43:32.260Z,12.26
2022-09-04T04:46:09.299Z,12.30
2022-09-04T04:49:04.265Z,12.33
2022-09-04T04:52:08.175Z,12.37
2022-09-04T04:55:05.396Z,12.37
2022-09-04T04:57:45.598Z,12.34
2022-09-04T05:00:25.344Z,12.34
2022-09-04T05:03:04.680Z,12.32
2022-09-04T05:05:58.743Z,12.36
2022-09-04T05:08:36.853Z,12.33
2022-09-04T05:11:16.100Z,12.30
2022-09-04T05:13:52.948Z,12.36
2022-09-04T05:16:30.008Z,12.37
2022-09-04T05:19:03.099Z,12.27
2022-09-04T05:21:41.154Z,12.43
2022-09-04T05:24:15.872Z,12.43
2022-09-04T05:26:54.748Z,12.50
2022-09-04T05:29:32.669Z,12.50
2022-09-04T05:32:13.477Z,12.61
2022-09-04T05:35:00.114Z,12.68
2022-09-04T05:37:34.213Z,12.76
2022-09-04T05:40:05.639Z,12.86
2022-09-04T05:42:49.771Z,12.97
2022-09-04T05:45:26.727Z,13.08
2022-09-04T05:48:05.412Z,13.21
2022-09-04T05:50:54.925Z,13.42
2022-09-04T05:53:41.933Z,13.53
2022-09-04T05:57:00.212Z,13.66
2022-09-04T05:59:56.943Z,13.84
2022-09-04T06:03:09.723Z,14.01
2022-09-04T06:05:45.996Z,14.20
2022-09-04T06:08:31.239Z,14.18
2022-09-04T06:11:07.112Z,14.56
2022-09-04T06:14:04.407Z,14.93
2022-09-04T06:16:49.501Z,15.13
2022-09-04T06:19:33.514Z,15.47
2022-09-04T06:22:25.000Z,15.65
2022-09-04T06:25:13.919Z,15.93
2022-09-04T06:27:57.332Z,16.15
2022-09-04T06:30:33.436Z,16.12
2022-09-04T06:33:18.423Z,16.49
2022-09-04T06:36:00.280Z,16.66
2022-09-04T06:38:43.261Z,16.86
2022-09-04T06:41:28.036Z,17.04
2022-09-04T06:44:08.302Z,17.17
2022-09-04T06:46:41.411Z,17.30
2022-09-04T06:49:18.052Z,17.53
2022-09-04T06:52:07.569Z,17.72
2022-09-04T06:54:48.478Z,17.90
2022-09-04T06:57:38.573Z,18.09
2022-09-04T07:00:09.466Z,18.29
2022-09-04T07:03:01.066Z,18.40
2022-09-04T07:05:34.728Z,18.61
2022-09-04T07:08:13.230Z,18.82
2022-09-04T07:10:46.914Z,19.03
2022-09-04T07:13:54.215Z,18.93
2022-09-04T07:16:37.453Z,19.38
2022-09-04T07:19:29.577Z,19.51
2022-09-04T07:22:11.592Z,19.85
2022-09-04T07:25:01.875Z,19.52
2022-09-04T07:27:42.125Z,19.91
2022-09-04T07:30:13.367Z,19.77
2022-09-04T07:32:50.153Z,20.16
2022-09-04T07:35:25.092Z,20.53
2022-09-04T07:38:00.594Z,20.84
2022-09-04T07:40:38.234Z,20.58
2022-09-04T07:43:14.168Z,21.08
2022-09-04T07:45:51.203Z,21.22
2022-09-04T07:48:25.754Z,21.22
2022-09-04T07:51:04.664Z,21.46
2022-09-04T07:53:47.352Z,21.31
2022-09-04T07:56:25.558Z,21.20
2022-09-04T07:59:13.445Z,21.44
2022-09-04T08:01:56.027Z,21.27
2022-09-04T08:04:46.274Z,21.62
2022-09-04T08:07:21.430Z,21.92
2022-09-04T08:10:10.258Z,21.60
2022-09-04T08:12:57.945Z,22.05
2022-09-04T08:15:40.936Z,22.32
2022-09-04T08:18:30.809Z,22.74
2022-09-04T08:21:11.658Z,22.21
2022-09-04T08:24:13.839Z,22.78
2022-09-04T08:26:52.824Z,22.80
2022-09-04T08:29:40.938Z,23.17
2022-09-04T08:32:37.871Z,22.42
2022-09-04T08:35:21.576Z,22.40
2022-09-04T08:38:02.841Z,22.10
2022-09-04T08:41:02.963Z,22.88
2022-09-04T08:43:50.601Z,23.70
2022-09-04T08:46:49.356Z,24.30
2022-09-04T08:49:54.040Z,23.63
2022-09-04T08:53:05.465Z,24.46
2022-09-04T08:56:08.096Z,24.44
2022-09-04T08:59:17.155Z,24.80
2022-09-04T09:02:18.999Z,25.10
2022-09-04T09:05:23.081Z,25.32
2022-09-04T09:08:30.973Z,25.20
2022-09-04T09:11:28.059Z,23.79
2022-09-04T09:14:38.336Z,24.50
2022-09-04T09:17:13.146Z,24.74
2022-09-04T09:19:55.744Z,25.34
2022-09-04T09:22:46.381Z,25.70
2022-09-04T09:25:21.075Z,25.00
2022-09-04T09:28:26.405Z,25.60
2022-09-04T09:31:13.756Z,25.54
2022-09-04T09:34:15.338Z,25.40
2022-09-04T09:37:08.183Z,25.59
2022-09-04T09:39:55.640Z,25.12
2022-09-04T09:42:59.880Z,25.55
2022-09-04T09:46:16.293Z,25.75
2022-09-04T09:49:36.007Z,25.03
2022-09-04T09:52:23.365Z,25.88
2022-09-04T09:55:38.992Z,25.03
2022-09-04T09:58:31.907Z,25.41
2022-09-04T10:01:11.410Z,26.31
2022-09-04T10:03:56.847Z,25.22
2022-09-04T10:06:59.296Z,26.39
2022-09-04T10:10:00.060Z,26.41
2022-09-04T10:13:15.535Z,26.90
2022-09-04T10:16:01.546Z,26.23
2022-09-04T10:19:08.191Z,25.82
2022-09-04T10:22:15.041Z,26.65
2022-09-04T10:25:13.879Z,27.34
2022-09-04T10:28:11.319Z,27.63
2022-09-04T10:31:01.961Z,27.13
2022-09-04T10:33:42.217Z,26.10
2022-09-04T10:36:21.626Z,26.51
2022-09-04T10:39:22.359Z,25.47
2022-09-04T10:42:12.464Z,26.10
2022-09-04T10:44:56.513Z,25.84
2022-09-04T10:47:38.266Z,25.49
2022-09-04T10:50:17.939Z,25.31
2022-09-04T10:53:10.504Z,25.16
2022-09-04T10:55:54.716Z,25.20
2022-09-04T10:58:30.966Z,25.97
2022-09-04T11:01:28.099Z,26.20
2022-09-04T11:04:17.759Z,26.34
2022-09-04T11:07:12.303Z,26.34
2022-09-04T11:09:59.589Z,26.67
2022-09-04T11:12:50.398Z,27.40
2022-09-04T11:15:35.500Z,27.17
2022-09-04T11:18:24.511Z,27.15
2022-09-04T11:24:21.046Z,26.73
2022-09-04T11:27:26.295Z,26.13
2022-09-04T11:30:03.829Z,26.29
2022-09-04T11:32:52.885Z,26.15
2022-09-04T11:35:59.472Z,25.35
2022-09-04T11:38:50.235Z,25.75
2022-09-04T11:41:43.705Z,25.96
2022-09-04T11:44:33.055Z,26.13
2022-09-04T11:47:37.196Z,26.09
2022-09-04T11:50:21.459Z,26.20
2022-09-04T11:53:23.986Z,26.19
2022-09-04T11:56:06.928Z,26.19
2022-09-04T11:58:55.839Z,26.37
2022-09-04T12:01:47.893Z,26.30
2022-09-04T12:04:34.935Z,26.58
2022-09-04T12:07:17.181Z,27.04
2022-09-04T12:10:23.768Z,26.78
2022-09-04T12:13:28.872Z,26.88
2022-09-04T12:16:44.450Z,26.75
2022-09-04T12:19:52.705Z,26.85
2022-09-04T12:23:01.565Z,27.05
2022-09-04T12:26:27.030Z,26.88
2022-09-04T12:29:40.365Z,27.17
2022-09-04T12:32:46.771Z,27.61
2022-09-04T12:35:48.980Z,28.06
2022-09-04T12:38:31.014Z,28.42
2022-09-04T12:41:07.787Z,29.05
2022-09-04T12:43:45.923Z,29.08
2022-09-04T12:46:29.507Z,29.13
2022-09-04T12:49:11.427Z,29.79
2022-09-04T12:51:48.234Z,29.84
2022-09-04T12:54:31.462Z,28.72
2022-09-04T12:57:15.217Z,28.62
2022-09-04T12:59:55.861Z,29.31
2022-09-04T13:02:34.235Z,29.87
2022-09-04T13:05:16.157Z,29.30
2022-09-04T13:07:55.582Z,29.73
2022-09-04T13:10:32.882Z,30.39
2022-09-04T13:13:15.191Z,30.82
2022-09-04T13:15:52.715Z,29.33
2022-09-04T13:18:34.988Z,29.98
2022-09-04T13:21:14.144Z,30.35
2022-09-04T13:23:58.999Z,29.63
2022-09-04T13:26:38.708Z,29.75
2022-09-04T13:29:19.589Z,28.06
2022-09-04T13:32:10.203Z,28.51
2022-09-04T13:34:52.638Z,28.88
2022-09-04T13:37:26.867Z,29.53
2022-09-04T13:40:20.822Z,29.93
2022-09-04T13:43:15.395Z,30.06
2022-09-04T13:45:46.810Z,30.51
2022-09-04T13:48:21.823Z,30.74
2022-09-04T13:50:54.962Z,30.74
2022-09-04T13:53:28.731Z,30.83
2022-09-04T13:56:06.160Z,30.75
2022-09-04T13:58:38.388Z,31.13
2022-09-04T14:01:11.914Z,30.98
2022-09-04T14:03:47.022Z,30.40
2022-09-04T14:06:17.751Z,30.03
2022-09-04T14:09:04.390Z,29.93
2022-09-04T14:12:07.540Z,30.05
2022-09-04T14:15:10.087Z,29.88
2022-09-04T14:17:42.094Z,29.33
2022-09-04T14:20:21.804Z,29.18
2022-09-04T14:22:59.025Z,28.96
2022-09-04T14:25:33.483Z,29.34
2022-09-04T14:28:13.200Z,29.80
2022-09-04T14:30:52.812Z,30.05
2022-09-04T14:33:37.004Z,29.94
2022-09-04T14:36:21.718Z,29.28
2022-09-04T14:38:59.837Z,29.42
2022-09-04T14:41:42.192Z,28.64
2022-09-04T14:44:27.546Z,27.84
2022-09-04T14:47:11.794Z,28.13
2022-09-04T14:49:47.746Z,27.70
2022-09-04T14:52:19.647Z,27.72
2022-09-04T14:54:52.723Z,28.14
2022-09-04T14:57:26.871Z,28.34
2022-09-04T15:00:09.941Z,27.75
2022-09-04T15:02:42.269Z,28.10
2022-09-04T15:05:20.799Z,28.04
2022-09-04T15:07:53.225Z,28.18
2022-09-04T15:10:26.877Z,28.29
2022-09-04T15:13:05.316Z,28.21
2022-09-04T15:15:40.236Z,28.22
2022-09-04T15:18:15.970Z,28.09
2022-09-04T15:20:55.184Z,27.90
2022-09-04T15:23:28.668Z,27.79
2022-09-04T15:26:05.125Z,27.86
2022-09-04T15:28:40.214Z,28.11
2022-09-04T15:31:16.316Z,27.99
2022-09-04T15:33:46.570Z,27.83
2022-09-04T15:36:18.244Z,27.79
2022-09-04T15:38:53.659Z,27.82
2022-09-04T15:41:28.252Z,27.82
2022-09-04T15:44:02.280Z,27.53
2022-09-04T15:46:46.282Z,27.68
2022-09-04T15:49:26.538Z,27.61
2022-09-04T15:52:03.372Z,27.70
2022-09-04T15:54:55.320Z,27.73
2022-09-04T15:57:29.531Z,27.49
2022-09-04T16:00:03.444Z,27.38
2022-09-04T16:02:41.187Z,26.48
2022-09-04T16:05:19.475Z,26.95
2022-09-04T16:08:03.793Z,27.15
2022-09-04T16:10:46.611Z,27.18
2022-09-04T16:13:44.176Z,27.07
2022-09-04T16:16:17.653Z,26.97
2022-09-04T16:18:54.859Z,26.81
2022-09-04T16:21:32.308Z,26.78
2022-09-04T16:24:07.996Z,26.41
2022-09-04T16:26:36.472Z,26.44
2022-09-04T16:29:09.851Z,26.71
2022-09-04T16:31:39.928Z,26.80
2022-09-04T16:34:20.677Z,26.82
2022-09-04T16:36:52.355Z,26.73
2022-09-04T16:39:28.906Z,26.76
2022-09-04T16:42:00.806Z,26.75
2022-09-04T16:44:34.319Z,26.80
2022-09-04T16:47:10.478Z,26.74
2022-09-04T16:49:48.086Z,26.85
2022-09-04T16:52:35.130Z,26.75
2022-09-04T16:55:11.386Z,26.73
2022-09-04T16:57:46.394Z,26.64
2022-09-04T17:00:17.548Z,26.32
2022-09-04T17:02:50.856Z,26.57
2022-09-04T17:05:28.741Z,26.47
2022-09-04T17:08:03.698Z,26.38
2022-09-04T17:10:42.468Z,26.35
2022-09-04T17:13:19.418Z,26.27
2022-09-04T17:15:57.923Z,26.32
2022-09-04T17:18:29.211Z,26.09
2022-09-04T17:23:43.076Z,26.11
2022-09-04T17:29:10.496Z,25.87
2022-09-04T17:29:15.822Z,25.99
2022-09-04T17:30:25.633Z,25.79
2022-09-04T17:40:13.734Z,25.79
2022-09-04T17:40:48.577Z,25.61
2022-09-04T17:40:51.771Z,25.58
2022-09-04T17:42:10.075Z,25.49
2022-09-04T17:44:50.720Z,25.44
2022-09-04T17:47:27.447Z,25.28
2022-09-04T17:49:56.416Z,25.16
2022-09-04T17:52:28.310Z,25.07
2022-09-04T17:55:02.782Z,24.84
2022-09-04T17:57:47.420Z,24.67
2022-09-04T18:00:20.611Z,24.50
2022-09-04T18:02:56.261Z,24.16
2022-09-04T18:05:27.900Z,24.09
2022-09-04T18:08:10.034Z,23.81
2022-09-04T18:10:51.425Z,23.69
2022-09-04T18:13:37.579Z,23.55
2022-09-04T18:16:16.334Z,23.31
2022-09-04T18:18:48.052Z,23.06
2022-09-04T18:21:24.180Z,22.85
2022-09-04T18:24:01.076Z,22.72
2022-09-04T18:26:41.365Z,22.57
2022-09-04T18:32:51.743Z,22.35
2022-09-04T18:37:07.157Z,22.24
2022-09-04T18:37:17.801Z,22.16
2022-09-04T18:38:20.696Z,22.10
2022-09-04T18:43:22.220Z,22.04
2022-09-04T18:50:30.251Z,21.85
2022-09-04T18:50:37.223Z,21.74
2022-09-04T18:50:39.984Z,21.62
2022-09-04T18:52:19.260Z,21.47
2022-09-04T18:54:50.952Z,21.37
2022-09-04T18:57:28.396Z,21.23
2022-09-04T19:00:07.980Z,21.09
2022-09-04T19:02:51.560Z,20.98
2022-09-04T19:05:24.585Z,20.79
2022-09-04T19:07:57.440Z,20.67
2022-09-04T19:10:28.100Z,20.71
2022-09-04T19:13:02.651Z,20.61
2022-09-04T19:15:45.857Z,20.41
2022-09-04T19:18:27.465Z,20.45
2022-09-04T19:21:18.311Z,20.36
2022-09-04T19:23:51.767Z,20.26
2022-09-04T19:26:27.906Z,20.14
2022-09-04T19:28:59.343Z,20.04
2022-09-04T19:31:34.959Z,20.01
2022-09-04T19:34:11.832Z,19.96
2022-09-04T19:36:46.256Z,19.79
2022-09-04T19:45:55.498Z,19.75
2022-09-04T19:45:57.609Z,19.69
2022-09-04T19:46:19.139Z,19.61
2022-09-04T19:48:18.608Z,19.53
2022-09-04T19:53:22.961Z,19.37
2022-09-04T19:53:49.842Z,19.39
2022-09-04T19:56:28.830Z,19.33
2022-09-04T19:59:03.516Z,19.29
2022-09-04T20:01:43.841Z,19.17
2022-09-04T20:04:25.531Z,19.13
2022-09-04T20:06:58.321Z,19.02
2022-09-04T20:09:33.077Z,18.99
2022-09-04T20:12:10.895Z,18.92
2022-09-04T20:14:44.146Z,18.81
2022-09-04T20:17:27.387Z,18.76
2022-09-04T20:20:00.024Z,18.71
2022-09-04T20:22:36.147Z,18.66
2022-09-04T20:25:28.358Z,18.58
2022-09-04T20:28:01.658Z,18.55
2022-09-04T20:30:31.584Z,18.46
2022-09-04T20:33:03.554Z,18.40
2022-09-04T20:35:41.015Z,18.34
2022-09-04T20:38:23.013Z,18.30
2022-09-04T20:40:56.741Z,18.27
2022-09-04T20:43:32.182Z,18.18
2022-09-04T20:52:43.865Z,18.20
2022-09-04T20:52:52.038Z,18.14
2022-09-04T20:53:05.756Z,18.06
2022-09-04T20:55:06.054Z,18.04
2022-09-04T21:03:13.458Z,17.98
2022-09-04T21:03:14.334Z,17.96
2022-09-04T21:03:56.448Z,17.88
2022-09-04T21:06:31.067Z,17.82
2022-09-04T21:09:13.631Z,17.73
2022-09-04T21:11:45.927Z,17.76
2022-09-04T21:14:20.758Z,17.76
2022-09-04T21:17:29.238Z,17.73
2022-09-04T21:20:17.802Z,17.69
2022-09-04T21:23:04.123Z,17.69
2022-09-04T21:25:47.006Z,17.60
2022-09-04T21:28:42.721Z,17.57
2022-09-04T21:31:20.797Z,17.50
2022-09-04T21:34:08.661Z,17.38
2022-09-04T21:36:42.310Z,17.40
2022-09-04T21:39:38.129Z,17.35
2022-09-04T21:42:32.157Z,17.33
2022-09-04T21:45:23.472Z,17.26
2022-09-04T21:48:18.395Z,17.18
2022-09-04T21:51:01.643Z,17.17
2022-09-04T21:53:58.523Z,17.16
2022-09-04T22:02:24.986Z,17.15
2022-09-04T22:02:37.959Z,17.16
2022-09-04T22:03:29.445Z,17.11
2022-09-04T22:06:09.054Z,17.06
2022-09-04T22:13:30.493Z,17.08
2022-09-04T22:13:43.868Z,17.14
2022-09-04T22:14:40.582Z,17.08
2022-09-04T22:17:29.411Z,17.03
2022-09-04T22:20:20.632Z,17.05
2022-09-04T22:23:27.144Z,17.08
2022-09-04T22:26:09.080Z,17.04
2022-09-04T22:29:17.865Z,17.10
2022-09-04T22:32:29.016Z,17.10
2022-09-04T22:35:38.750Z,16.95
2022-09-04T22:38:32.921Z,16.95
2022-09-04T22:41:14.198Z,16.94
2022-09-04T22:43:47.261Z,16.93
2022-09-04T22:46:48.329Z,16.90
2022-09-04T22:49:43.248Z,16.91
2022-09-04T22:52:28.194Z,16.85
2022-09-04T22:55:29.620Z,16.73
2022-09-04T22:58:15.507Z,16.78
2022-09-04T23:01:02.522Z,16.78
2022-09-04T23:03:48.202Z,16.79
2022-09-04T23:12:09.505Z,16.72
2022-09-04T23:13:47.406Z,16.68
2022-09-04T23:13:52.748Z,16.59
2022-09-04T23:16:49.308Z,16.68
2022-09-04T23:26:33.528Z,16.49
2022-09-04T23:26:43.776Z,16.62
2022-09-04T23:26:48.845Z,16.63
2022-09-04T23:29:51.272Z,16.59
2022-09-04T23:32:39.440Z,16.60
2022-09-04T23:35:16.365Z,16.64
2022-09-04T23:38:13.065Z,16.66
2022-09-04T23:40:46.838Z,16.72
2022-09-04T23:43:32.482Z,16.76
2022-09-04T23:46:26.585Z,16.81
2022-09-04T23:49:29.561Z,16.81
2022-09-04T23:52:03.690Z,16.81
